sensor_id;sensor_type;location;lat;lon;timestamp;P1;durP1;ratioP1;P2;durP2;ratioP2
10651;SDS011;5374;42.742;23.266;2023-02-15T00:02:31;47.37;;;31.00;;
10651;SDS011;5374;42.742;23.266;2023-02-15T00:05:18;45.67;;;29.80;;
10651;SDS011;5374;42.742;23.266;2023-02-15T00:08:06;47.47;;;31.40;;
10651;SDS011;5374;42.742;23.266;2023-02-15T00:10:53;43.93;;;29.97;;
10651;SDS011;5374;42.742;23.266;2023-02-15T00:13:43;45.93;;;29.20;;
10651;SDS011;5374;42.742;23.266;2023-02-15T00:16:31;43.87;;;30.73;;
10651;SDS011;5374;42.742;23.266;2023-02-15T00:19:20;53.60;;;34.33;;
10651;SDS011;5374;42.742;23.266;2023-02-15T00:22:08;54.40;;;32.67;;
10651;SDS011;5374;42.742;23.266;2023-02-15T00:24:55;50.17;;;33.23;;
10651;SDS011;5374;42.742;23.266;2023-02-15T00:27:42;49.17;;;31.57;;
10651;SDS011;5374;42.742;23.266;2023-02-15T00:30:31;44.77;;;30.53;;
10651;SDS011;5374;42.742;23.266;2023-02-15T00:33:19;47.63;;;30.57;;
10651;SDS011;5374;42.742;23.266;2023-02-15T00:36:07;49.90;;;31.53;;
10651;SDS011;5374;42.742;23.266;2023-02-15T00:38:55;43.17;;;29.57;;
10651;SDS011;5374;42.742;23.266;2023-02-15T00:41:42;42.97;;;29.27;;
10651;SDS011;5374;42.742;23.266;2023-02-15T00:44:30;43.10;;;29.73;;
10651;SDS011;5374;42.742;23.266;2023-02-15T00:47:17;44.43;;;28.83;;
10651;SDS011;5374;42.742;23.266;2023-02-15T00:50:06;42.37;;;28.83;;
10651;SDS011;5374;42.742;23.266;2023-02-15T00:52:53;41.97;;;28.83;;
10651;SDS011;5374;42.742;23.266;2023-02-15T00:55:41;43.50;;;27.97;;
10651;SDS011;5374;42.742;23.266;2023-02-15T00:58:28;42.30;;;27.80;;
10651;SDS011;5374;42.742;23.266;2023-02-15T01:01:16;40.83;;;28.50;;
10651;SDS011;5374;42.742;23.266;2023-02-15T01:04:04;41.73;;;28.23;;
10651;SDS011;5374;42.742;23.266;2023-02-15T01:06:53;40.27;;;28.10;;
10651;SDS011;5374;42.742;23.266;2023-02-15T01:09:40;40.37;;;27.27;;
10651;SDS011;5374;42.742;23.266;2023-02-15T01:12:29;42.07;;;27.67;;
10651;SDS011;5374;42.742;23.266;2023-02-15T01:15:18;41.67;;;27.30;;
10651;SDS011;5374;42.742;23.266;2023-02-15T01:18:06;39.20;;;27.90;;
10651;SDS011;5374;42.742;23.266;2023-02-15T01:20:53;38.50;;;27.03;;
10651;SDS011;5374;42.742;23.266;2023-02-15T01:23:41;43.37;;;27.33;;
10651;SDS011;5374;42.742;23.266;2023-02-15T01:26:29;40.60;;;27.77;;
10651;SDS011;5374;42.742;23.266;2023-02-15T01:29:16;45.30;;;27.13;;
10651;SDS011;5374;42.742;23.266;2023-02-15T01:32:03;42.23;;;27.37;;
10651;SDS011;5374;42.742;23.266;2023-02-15T01:34:51;40.10;;;28.13;;
10651;SDS011;5374;42.742;23.266;2023-02-15T01:37:38;41.60;;;27.80;;
10651;SDS011;5374;42.742;23.266;2023-02-15T01:40:26;42.53;;;27.57;;
10651;SDS011;5374;42.742;23.266;2023-02-15T01:43:14;38.73;;;26.57;;
10651;SDS011;5374;42.742;23.266;2023-02-15T01:46:01;40.97;;;26.67;;
10651;SDS011;5374;42.742;23.266;2023-02-15T01:48:50;41.43;;;27.33;;
10651;SDS011;5374;42.742;23.266;2023-02-15T01:51:42;38.57;;;27.40;;
10651;SDS011;5374;42.742;23.266;2023-02-15T01:54:32;38.13;;;27.43;;
10651;SDS011;5374;42.742;23.266;2023-02-15T01:57:23;40.37;;;28.00;;
10651;SDS011;5374;42.742;23.266;2023-02-15T02:00:17;42.77;;;28.53;;
10651;SDS011;5374;42.742;23.266;2023-02-15T02:03:05;42.53;;;28.73;;
10651;SDS011;5374;42.742;23.266;2023-02-15T02:05:52;40.37;;;29.13;;
10651;SDS011;5374;42.742;23.266;2023-02-15T02:08:39;38.50;;;27.93;;
10651;SDS011;5374;42.742;23.266;2023-02-15T02:11:28;42.53;;;28.70;;
10651;SDS011;5374;42.742;23.266;2023-02-15T02:14:17;40.30;;;27.43;;
10651;SDS011;5374;42.742;23.266;2023-02-15T02:17:05;42.43;;;28.23;;
10651;SDS011;5374;42.742;23.266;2023-02-15T02:23:24;40.23;;;27.17;;
10651;SDS011;5374;42.742;23.266;2023-02-15T02:33:23;37.67;;;26.40;;
10651;SDS011;5374;42.742;23.266;2023-02-15T02:36:21;41.23;;;28.00;;
10651;SDS011;5374;42.742;23.266;2023-02-15T02:39:20;37.33;;;25.67;;
10651;SDS011;5374;42.742;23.266;2023-02-15T02:42:15;38.00;;;26.73;;
10651;SDS011;5374;42.742;23.266;2023-02-15T02:45:08;38.83;;;25.97;;
10651;SDS011;5374;42.742;23.266;2023-02-15T02:48:00;35.30;;;25.33;;
10651;SDS011;5374;42.742;23.266;2023-02-15T02:50:54;37.50;;;25.63;;
10651;SDS011;5374;42.742;23.266;2023-02-15T02:53:42;37.07;;;25.63;;
10651;SDS011;5374;42.742;23.266;2023-02-15T02:56:30;35.80;;;25.30;;
10651;SDS011;5374;42.742;23.266;2023-02-15T02:59:23;36.13;;;25.90;;
10651;SDS011;5374;42.742;23.266;2023-02-15T03:02:16;36.97;;;26.13;;
10651;SDS011;5374;42.742;23.266;2023-02-15T03:05:08;39.30;;;26.30;;
10651;SDS011;5374;42.742;23.266;2023-02-15T03:08:01;39.23;;;26.07;;
10651;SDS011;5374;42.742;23.266;2023-02-15T03:10:52;36.43;;;25.53;;
10651;SDS011;5374;42.742;23.266;2023-02-15T03:13:42;37.53;;;26.43;;
10651;SDS011;5374;42.742;23.266;2023-02-15T03:16:30;37.70;;;26.87;;
10651;SDS011;5374;42.742;23.266;2023-02-15T03:19:20;38.53;;;25.57;;
10651;SDS011;5374;42.742;23.266;2023-02-15T03:22:10;38.23;;;26.03;;
10651;SDS011;5374;42.742;23.266;2023-02-15T03:25:06;38.17;;;25.50;;
10651;SDS011;5374;42.742;23.266;2023-02-15T03:27:59;33.03;;;24.37;;
10651;SDS011;5374;42.742;23.266;2023-02-15T03:30:51;34.77;;;25.67;;
10651;SDS011;5374;42.742;23.266;2023-02-15T03:33:42;33.57;;;23.97;;
10651;SDS011;5374;42.742;23.266;2023-02-15T03:36:35;36.27;;;24.90;;
10651;SDS011;5374;42.742;23.266;2023-02-15T03:39:30;38.00;;;26.37;;
10651;SDS011;5374;42.742;23.266;2023-02-15T03:42:24;36.43;;;25.53;;
10651;SDS011;5374;42.742;23.266;2023-02-15T03:45:15;36.87;;;25.03;;
10651;SDS011;5374;42.742;23.266;2023-02-15T03:48:10;34.20;;;24.80;;
10651;SDS011;5374;42.742;23.266;2023-02-15T03:50:58;39.97;;;25.27;;
10651;SDS011;5374;42.742;23.266;2023-02-15T03:54:07;34.73;;;24.47;;
10651;SDS011;5374;42.742;23.266;2023-02-15T03:56:56;34.67;;;24.60;;
10651;SDS011;5374;42.742;23.266;2023-02-15T03:59:59;36.23;;;24.17;;
10651;SDS011;5374;42.742;23.266;2023-02-15T04:03:07;35.00;;;24.43;;
10651;SDS011;5374;42.742;23.266;2023-02-15T04:05:59;32.70;;;23.73;;
10651;SDS011;5374;42.742;23.266;2023-02-15T04:08:48;36.30;;;25.87;;
10651;SDS011;5374;42.742;23.266;2023-02-15T04:11:53;39.07;;;26.07;;
10651;SDS011;5374;42.742;23.266;2023-02-15T04:14:40;33.87;;;24.30;;
10651;SDS011;5374;42.742;23.266;2023-02-15T04:17:48;35.33;;;24.80;;
10651;SDS011;5374;42.742;23.266;2023-02-15T04:20:37;36.97;;;24.23;;
10651;SDS011;5374;42.742;23.266;2023-02-15T04:23:41;37.70;;;24.60;;
10651;SDS011;5374;42.742;23.266;2023-02-15T04:26:46;40.33;;;26.10;;
10651;SDS011;5374;42.742;23.266;2023-02-15T04:29:34;38.77;;;25.57;;
10651;SDS011;5374;42.742;23.266;2023-02-15T04:32:21;38.13;;;25.63;;
10651;SDS011;5374;42.742;23.266;2023-02-15T04:35:10;36.10;;;24.70;;
10651;SDS011;5374;42.742;23.266;2023-02-15T04:37:58;35.93;;;24.93;;
10651;SDS011;5374;42.742;23.266;2023-02-15T04:40:49;37.53;;;25.97;;
10651;SDS011;5374;42.742;23.266;2023-02-15T04:43:36;36.10;;;25.70;;
10651;SDS011;5374;42.742;23.266;2023-02-15T04:46:24;37.17;;;25.27;;
10651;SDS011;5374;42.742;23.266;2023-02-15T04:49:11;36.43;;;25.30;;
10651;SDS011;5374;42.742;23.266;2023-02-15T04:51:59;39.33;;;25.03;;
10651;SDS011;5374;42.742;23.266;2023-02-15T04:54:46;35.17;;;23.87;;
10651;SDS011;5374;42.742;23.266;2023-02-15T04:57:33;38.27;;;26.27;;
10651;SDS011;5374;42.742;23.266;2023-02-15T05:00:21;35.67;;;24.63;;
10651;SDS011;5374;42.742;23.266;2023-02-15T05:03:08;34.23;;;24.40;;
10651;SDS011;5374;42.742;23.266;2023-02-15T05:05:55;34.27;;;24.53;;
10651;SDS011;5374;42.742;23.266;2023-02-15T05:08:44;35.40;;;25.80;;
10651;SDS011;5374;42.742;23.266;2023-02-15T05:11:31;38.80;;;25.87;;
10651;SDS011;5374;42.742;23.266;2023-02-15T05:14:18;37.37;;;25.83;;
10651;SDS011;5374;42.742;23.266;2023-02-15T05:17:05;34.77;;;25.40;;
10651;SDS011;5374;42.742;23.266;2023-02-15T05:19:52;38.33;;;26.30;;
10651;SDS011;5374;42.742;23.266;2023-02-15T05:22:39;38.70;;;26.20;;
10651;SDS011;5374;42.742;23.266;2023-02-15T05:25:28;42.67;;;27.37;;
10651;SDS011;5374;42.742;23.266;2023-02-15T05:28:33;39.00;;;25.57;;
10651;SDS011;5374;42.742;23.266;2023-02-15T05:31:21;45.97;;;29.33;;
10651;SDS011;5374;42.742;23.266;2023-02-15T05:34:08;43.27;;;28.70;;
10651;SDS011;5374;42.742;23.266;2023-02-15T05:36:55;41.30;;;29.43;;
10651;SDS011;5374;42.742;23.266;2023-02-15T05:39:42;39.07;;;28.37;;
10651;SDS011;5374;42.742;23.266;2023-02-15T05:42:31;36.40;;;24.63;;
10651;SDS011;5374;42.742;23.266;2023-02-15T05:45:18;34.00;;;23.87;;
10651;SDS011;5374;42.742;23.266;2023-02-15T05:48:05;35.37;;;24.57;;
10651;SDS011;5374;42.742;23.266;2023-02-15T05:50:59;38.63;;;25.70;;
10651;SDS011;5374;42.742;23.266;2023-02-15T05:53:48;34.77;;;24.23;;
10651;SDS011;5374;42.742;23.266;2023-02-15T05:56:35;35.50;;;24.13;;
10651;SDS011;5374;42.742;23.266;2023-02-15T05:59:24;35.57;;;24.27;;
10651;SDS011;5374;42.742;23.266;2023-02-15T06:02:11;34.43;;;23.77;;
10651;SDS011;5374;42.742;23.266;2023-02-15T06:04:58;38.37;;;26.13;;
10651;SDS011;5374;42.742;23.266;2023-02-15T06:07:45;39.53;;;26.97;;
10651;SDS011;5374;42.742;23.266;2023-02-15T06:10:32;36.90;;;25.83;;
10651;SDS011;5374;42.742;23.266;2023-02-15T06:13:20;38.30;;;27.23;;
10651;SDS011;5374;42.742;23.266;2023-02-15T06:16:08;35.20;;;24.80;;
10651;SDS011;5374;42.742;23.266;2023-02-15T06:18:55;37.00;;;25.17;;
10651;SDS011;5374;42.742;23.266;2023-02-15T06:21:44;33.90;;;25.07;;
10651;SDS011;5374;42.742;23.266;2023-02-15T06:24:31;33.33;;;24.20;;
10651;SDS011;5374;42.742;23.266;2023-02-15T06:27:19;35.33;;;26.10;;
10651;SDS011;5374;42.742;23.266;2023-02-15T06:30:07;33.60;;;24.87;;
10651;SDS011;5374;42.742;23.266;2023-02-15T06:32:56;35.77;;;25.90;;
10651;SDS011;5374;42.742;23.266;2023-02-15T06:35:44;33.60;;;25.17;;
10651;SDS011;5374;42.742;23.266;2023-02-15T06:38:32;37.90;;;25.40;;
10651;SDS011;5374;42.742;23.266;2023-02-15T06:41:19;31.03;;;23.73;;
10651;SDS011;5374;42.742;23.266;2023-02-15T06:44:07;34.87;;;24.03;;
10651;SDS011;5374;42.742;23.266;2023-02-15T06:46:54;32.40;;;23.50;;
10651;SDS011;5374;42.742;23.266;2023-02-15T06:49:43;31.97;;;23.50;;
10651;SDS011;5374;42.742;23.266;2023-02-15T06:52:30;32.87;;;25.23;;
10651;SDS011;5374;42.742;23.266;2023-02-15T06:55:17;34.20;;;25.23;;
10651;SDS011;5374;42.742;23.266;2023-02-15T06:58:04;31.80;;;23.03;;
10651;SDS011;5374;42.742;23.266;2023-02-15T07:00:52;30.67;;;22.77;;
10651;SDS011;5374;42.742;23.266;2023-02-15T07:03:39;32.10;;;23.33;;
10651;SDS011;5374;42.742;23.266;2023-02-15T07:06:27;27.97;;;21.37;;
10651;SDS011;5374;42.742;23.266;2023-02-15T07:09:18;31.60;;;21.90;;
10651;SDS011;5374;42.742;23.266;2023-02-15T07:12:05;30.07;;;22.33;;
10651;SDS011;5374;42.742;23.266;2023-02-15T07:15:10;31.80;;;22.50;;
10651;SDS011;5374;42.742;23.266;2023-02-15T07:17:59;33.03;;;22.70;;
10651;SDS011;5374;42.742;23.266;2023-02-15T07:20:46;30.50;;;22.63;;
10651;SDS011;5374;42.742;23.266;2023-02-15T07:23:35;32.60;;;23.90;;
10651;SDS011;5374;42.742;23.266;2023-02-15T07:26:23;34.90;;;24.57;;
10651;SDS011;5374;42.742;23.266;2023-02-15T07:29:11;32.80;;;24.67;;
10651;SDS011;5374;42.742;23.266;2023-02-15T07:31:58;32.77;;;24.17;;
10651;SDS011;5374;42.742;23.266;2023-02-15T07:34:45;36.30;;;24.20;;
10651;SDS011;5374;42.742;23.266;2023-02-15T07:37:32;34.07;;;24.07;;
10651;SDS011;5374;42.742;23.266;2023-02-15T07:40:22;31.57;;;23.07;;
10651;SDS011;5374;42.742;23.266;2023-02-15T07:43:09;32.53;;;23.23;;
10651;SDS011;5374;42.742;23.266;2023-02-15T07:45:58;34.93;;;25.47;;
10651;SDS011;5374;42.742;23.266;2023-02-15T07:48:46;30.90;;;23.63;;
10651;SDS011;5374;42.742;23.266;2023-02-15T07:51:33;36.30;;;25.37;;
10651;SDS011;5374;42.742;23.266;2023-02-15T07:54:21;39.90;;;27.23;;
10651;SDS011;5374;42.742;23.266;2023-02-15T07:57:10;31.13;;;23.40;;
10651;SDS011;5374;42.742;23.266;2023-02-15T07:59:57;36.47;;;26.13;;
10651;SDS011;5374;42.742;23.266;2023-02-15T08:02:47;26.17;;;19.30;;
10651;SDS011;5374;42.742;23.266;2023-02-15T08:05:56;36.20;;;26.57;;
10651;SDS011;5374;42.742;23.266;2023-02-15T08:08:44;29.17;;;22.57;;
10651;SDS011;5374;42.742;23.266;2023-02-15T08:11:32;26.80;;;19.63;;
10651;SDS011;5374;42.742;23.266;2023-02-15T08:14:23;28.83;;;19.83;;
10651;SDS011;5374;42.742;23.266;2023-02-15T08:17:10;31.80;;;22.87;;
10651;SDS011;5374;42.742;23.266;2023-02-15T08:19:57;37.47;;;25.20;;
10651;SDS011;5374;42.742;23.266;2023-02-15T08:22:44;30.53;;;21.63;;
10651;SDS011;5374;42.742;23.266;2023-02-15T08:25:32;31.53;;;22.80;;
10651;SDS011;5374;42.742;23.266;2023-02-15T08:28:19;26.73;;;19.03;;
10651;SDS011;5374;42.742;23.266;2023-02-15T08:31:07;25.10;;;18.13;;
10651;SDS011;5374;42.742;23.266;2023-02-15T08:33:56;26.97;;;19.67;;
10651;SDS011;5374;42.742;23.266;2023-02-15T08:36:43;28.07;;;21.30;;
10651;SDS011;5374;42.742;23.266;2023-02-15T08:39:31;30.87;;;22.27;;
10651;SDS011;5374;42.742;23.266;2023-02-15T08:42:18;27.47;;;19.00;;
10651;SDS011;5374;42.742;23.266;2023-02-15T08:45:07;26.40;;;18.77;;
10651;SDS011;5374;42.742;23.266;2023-02-15T08:47:56;22.03;;;17.73;;
10651;SDS011;5374;42.742;23.266;2023-02-15T08:50:43;23.07;;;18.50;;
10651;SDS011;5374;42.742;23.266;2023-02-15T08:53:30;25.00;;;17.70;;
10651;SDS011;5374;42.742;23.266;2023-02-15T08:56:18;24.77;;;17.80;;
10651;SDS011;5374;42.742;23.266;2023-02-15T08:59:11;28.67;;;21.57;;
10651;SDS011;5374;42.742;23.266;2023-02-15T09:02:00;23.73;;;18.87;;
10651;SDS011;5374;42.742;23.266;2023-02-15T09:04:49;26.03;;;19.63;;
10651;SDS011;5374;42.742;23.266;2023-02-15T09:07:37;23.30;;;18.93;;
10651;SDS011;5374;42.742;23.266;2023-02-15T09:10:24;28.03;;;21.13;;
10651;SDS011;5374;42.742;23.266;2023-02-15T09:13:11;27.33;;;19.73;;
10651;SDS011;5374;42.742;23.266;2023-02-15T09:15:59;21.90;;;17.90;;
10651;SDS011;5374;42.742;23.266;2023-02-15T09:18:47;24.17;;;19.37;;
10651;SDS011;5374;42.742;23.266;2023-02-15T09:21:36;25.97;;;18.90;;
10651;SDS011;5374;42.742;23.266;2023-02-15T09:24:24;26.97;;;18.50;;
10651;SDS011;5374;42.742;23.266;2023-02-15T09:27:11;25.73;;;19.43;;
10651;SDS011;5374;42.742;23.266;2023-02-15T09:29:58;28.20;;;19.80;;
10651;SDS011;5374;42.742;23.266;2023-02-15T09:32:46;27.33;;;19.83;;
10651;SDS011;5374;42.742;23.266;2023-02-15T09:35:34;28.47;;;22.13;;
10651;SDS011;5374;42.742;23.266;2023-02-15T09:38:22;25.53;;;19.80;;
10651;SDS011;5374;42.742;23.266;2023-02-15T09:41:14;27.30;;;19.97;;
10651;SDS011;5374;42.742;23.266;2023-02-15T09:44:27;26.87;;;20.63;;
10651;SDS011;5374;42.742;23.266;2023-02-15T09:47:38;24.10;;;19.47;;
10651;SDS011;5374;42.742;23.266;2023-02-15T09:50:37;23.03;;;17.87;;
10651;SDS011;5374;42.742;23.266;2023-02-15T09:53:38;25.30;;;19.13;;
10651;SDS011;5374;42.742;23.266;2023-02-15T09:56:38;24.77;;;18.10;;
10651;SDS011;5374;42.742;23.266;2023-02-15T09:59:33;29.07;;;18.23;;
10651;SDS011;5374;42.742;23.266;2023-02-15T10:02:32;25.63;;;19.03;;
10651;SDS011;5374;42.742;23.266;2023-02-15T10:05:32;30.17;;;23.53;;
10651;SDS011;5374;42.742;23.266;2023-02-15T10:08:50;25.77;;;20.00;;
10651;SDS011;5374;42.742;23.266;2023-02-15T10:11:52;28.83;;;21.33;;
10651;SDS011;5374;42.742;23.266;2023-02-15T10:14:55;24.00;;;19.13;;
10651;SDS011;5374;42.742;23.266;2023-02-15T10:18:04;25.83;;;20.13;;
10651;SDS011;5374;42.742;23.266;2023-02-15T10:21:00;24.97;;;18.43;;
10651;SDS011;5374;42.742;23.266;2023-02-15T10:23:59;21.50;;;17.40;;
10651;SDS011;5374;42.742;23.266;2023-02-15T10:27:00;24.27;;;18.77;;
10651;SDS011;5374;42.742;23.266;2023-02-15T10:29:58;24.17;;;19.33;;
10651;SDS011;5374;42.742;23.266;2023-02-15T10:32:57;28.53;;;20.17;;
10651;SDS011;5374;42.742;23.266;2023-02-15T10:35:48;24.70;;;19.67;;
10651;SDS011;5374;42.742;23.266;2023-02-15T10:38:46;26.90;;;19.67;;
10651;SDS011;5374;42.742;23.266;2023-02-15T10:41:41;30.23;;;20.80;;
10651;SDS011;5374;42.742;23.266;2023-02-15T10:44:37;27.00;;;20.77;;
10651;SDS011;5374;42.742;23.266;2023-02-15T10:47:48;31.33;;;22.30;;
10651;SDS011;5374;42.742;23.266;2023-02-15T10:50:47;24.47;;;19.13;;
10651;SDS011;5374;42.742;23.266;2023-02-15T10:53:39;31.13;;;21.23;;
10651;SDS011;5374;42.742;23.266;2023-02-15T10:56:42;27.90;;;20.77;;
10651;SDS011;5374;42.742;23.266;2023-02-15T11:02:53;23.80;;;19.80;;
10651;SDS011;5374;42.742;23.266;2023-02-15T11:05:53;25.70;;;19.97;;
10651;SDS011;5374;42.742;23.266;2023-02-15T11:08:49;28.10;;;21.83;;
10651;SDS011;5374;42.742;23.266;2023-02-15T11:11:41;31.17;;;22.97;;
10651;SDS011;5374;42.742;23.266;2023-02-15T11:14:33;28.77;;;20.73;;
10651;SDS011;5374;42.742;23.266;2023-02-15T11:17:28;29.40;;;21.30;;
10651;SDS011;5374;42.742;23.266;2023-02-15T11:20:23;29.10;;;21.33;;
10651;SDS011;5374;42.742;23.266;2023-02-15T11:23:15;26.73;;;21.37;;
10651;SDS011;5374;42.742;23.266;2023-02-15T11:26:04;32.90;;;24.10;;
10651;SDS011;5374;42.742;23.266;2023-02-15T11:29:01;28.20;;;22.03;;
10651;SDS011;5374;42.742;23.266;2023-02-15T11:31:55;29.93;;;22.67;;
10651;SDS011;5374;42.742;23.266;2023-02-15T11:34:46;29.37;;;21.67;;
10651;SDS011;5374;42.742;23.266;2023-02-15T11:37:39;27.37;;;21.00;;
10651;SDS011;5374;42.742;23.266;2023-02-15T11:40:32;28.63;;;21.63;;
10651;SDS011;5374;42.742;23.266;2023-02-15T11:43:23;26.57;;;21.10;;
10651;SDS011;5374;42.742;23.266;2023-02-15T11:46:16;27.77;;;20.30;;
10651;SDS011;5374;42.742;23.266;2023-02-15T11:49:07;26.67;;;20.10;;
10651;SDS011;5374;42.742;23.266;2023-02-15T11:52:07;25.67;;;20.27;;
10651;SDS011;5374;42.742;23.266;2023-02-15T11:54:58;25.60;;;19.60;;
10651;SDS011;5374;42.742;23.266;2023-02-15T11:57:46;24.23;;;19.77;;
10651;SDS011;5374;42.742;23.266;2023-02-15T12:00:39;26.63;;;20.70;;
10651;SDS011;5374;42.742;23.266;2023-02-15T12:03:33;28.13;;;22.17;;
10651;SDS011;5374;42.742;23.266;2023-02-15T12:06:32;28.23;;;21.60;;
10651;SDS011;5374;42.742;23.266;2023-02-15T12:09:23;26.93;;;20.80;;
10651;SDS011;5374;42.742;23.266;2023-02-15T12:12:23;27.77;;;21.53;;
10651;SDS011;5374;42.742;23.266;2023-02-15T12:15:11;30.30;;;23.17;;
10651;SDS011;5374;42.742;23.266;2023-02-15T12:18:00;30.77;;;22.90;;
10651;SDS011;5374;42.742;23.266;2023-02-15T12:20:49;32.50;;;23.87;;
10651;SDS011;5374;42.742;23.266;2023-02-15T12:23:39;28.57;;;22.77;;
10651;SDS011;5374;42.742;23.266;2023-02-15T12:26:30;33.63;;;21.77;;
10651;SDS011;5374;42.742;23.266;2023-02-15T12:29:21;31.73;;;21.03;;
10651;SDS011;5374;42.742;23.266;2023-02-15T12:32:16;32.63;;;22.13;;
10651;SDS011;5374;42.742;23.266;2023-02-15T12:35:07;29.83;;;20.87;;
10651;SDS011;5374;42.742;23.266;2023-02-15T12:38:02;27.33;;;21.37;;
10651;SDS011;5374;42.742;23.266;2023-02-15T12:40:56;27.00;;;21.30;;
10651;SDS011;5374;42.742;23.266;2023-02-15T12:43:45;27.27;;;20.13;;
10651;SDS011;5374;42.742;23.266;2023-02-15T12:46:32;25.57;;;20.43;;
10651;SDS011;5374;42.742;23.266;2023-02-15T12:49:20;26.67;;;20.60;;
10651;SDS011;5374;42.742;23.266;2023-02-15T12:52:23;25.83;;;20.10;;
10651;SDS011;5374;42.742;23.266;2023-02-15T12:55:19;30.03;;;21.87;;
10651;SDS011;5374;42.742;23.266;2023-02-15T12:58:15;27.53;;;20.20;;
10651;SDS011;5374;42.742;23.266;2023-02-15T13:01:10;25.83;;;20.33;;
10651;SDS011;5374;42.742;23.266;2023-02-15T13:03:59;29.33;;;21.40;;
10651;SDS011;5374;42.742;23.266;2023-02-15T13:06:50;25.93;;;20.23;;
10651;SDS011;5374;42.742;23.266;2023-02-15T13:09:39;27.97;;;22.53;;
10651;SDS011;5374;42.742;23.266;2023-02-15T13:12:29;26.60;;;20.47;;
10651;SDS011;5374;42.742;23.266;2023-02-15T13:15:23;25.27;;;21.07;;
10651;SDS011;5374;42.742;23.266;2023-02-15T13:18:16;38.13;;;28.40;;
10651;SDS011;5374;42.742;23.266;2023-02-15T13:21:08;29.43;;;21.00;;
10651;SDS011;5374;42.742;23.266;2023-02-15T13:23:58;28.03;;;21.37;;
10651;SDS011;5374;42.742;23.266;2023-02-15T13:26:48;25.33;;;20.53;;
10651;SDS011;5374;42.742;23.266;2023-02-15T13:29:38;25.40;;;19.17;;
10651;SDS011;5374;42.742;23.266;2023-02-15T13:32:30;26.97;;;19.63;;
10651;SDS011;5374;42.742;23.266;2023-02-15T13:35:21;24.00;;;18.93;;
10651;SDS011;5374;42.742;23.266;2023-02-15T13:38:21;25.67;;;19.97;;
10651;SDS011;5374;42.742;23.266;2023-02-15T13:41:32;26.37;;;21.37;;
10651;SDS011;5374;42.742;23.266;2023-02-15T13:44:29;25.37;;;19.80;;
10651;SDS011;5374;42.742;23.266;2023-02-15T13:47:49;25.40;;;19.37;;
10651;SDS011;5374;42.742;23.266;2023-02-15T13:50:51;25.90;;;20.30;;
10651;SDS011;5374;42.742;23.266;2023-02-15T13:54:00;32.47;;;21.23;;
10651;SDS011;5374;42.742;23.266;2023-02-15T13:57:06;28.20;;;21.80;;
10651;SDS011;5374;42.742;23.266;2023-02-15T14:00:14;27.27;;;19.70;;
10651;SDS011;5374;42.742;23.266;2023-02-15T14:03:14;30.77;;;20.90;;
10651;SDS011;5374;42.742;23.266;2023-02-15T14:06:27;31.03;;;21.23;;
10651;SDS011;5374;42.742;23.266;2023-02-15T14:09:28;30.90;;;20.77;;
10651;SDS011;5374;42.742;23.266;2023-02-15T14:12:31;24.27;;;19.93;;
10651;SDS011;5374;42.742;23.266;2023-02-15T14:15:26;27.57;;;20.37;;
10651;SDS011;5374;42.742;23.266;2023-02-15T14:18:22;26.53;;;20.57;;
10651;SDS011;5374;42.742;23.266;2023-02-15T14:21:17;25.47;;;20.47;;
10651;SDS011;5374;42.742;23.266;2023-02-15T14:24:14;26.63;;;20.43;;
10651;SDS011;5374;42.742;23.266;2023-02-15T14:27:12;26.67;;;20.93;;
10651;SDS011;5374;42.742;23.266;2023-02-15T14:30:12;29.33;;;21.90;;
10651;SDS011;5374;42.742;23.266;2023-02-15T14:33:05;29.13;;;21.87;;
10651;SDS011;5374;42.742;23.266;2023-02-15T14:35:55;26.33;;;20.87;;
10651;SDS011;5374;42.742;23.266;2023-02-15T14:38:50;31.43;;;21.37;;
10651;SDS011;5374;42.742;23.266;2023-02-15T14:41:48;28.57;;;20.63;;
10651;SDS011;5374;42.742;23.266;2023-02-15T14:44:39;29.87;;;20.93;;
10651;SDS011;5374;42.742;23.266;2023-02-15T14:47:33;32.77;;;23.40;;
10651;SDS011;5374;42.742;23.266;2023-02-15T14:50:37;35.03;;;25.03;;
10651;SDS011;5374;42.742;23.266;2023-02-15T14:56:32;33.97;;;23.63;;
10651;SDS011;5374;42.742;23.266;2023-02-15T14:59:20;31.23;;;22.17;;
10651;SDS011;5374;42.742;23.266;2023-02-15T15:02:10;25.90;;;21.07;;
10651;SDS011;5374;42.742;23.266;2023-02-15T15:05:05;32.13;;;22.87;;
10651;SDS011;5374;42.742;23.266;2023-02-15T15:07:55;29.43;;;22.90;;
10651;SDS011;5374;42.742;23.266;2023-02-15T15:10:46;32.33;;;23.60;;
10651;SDS011;5374;42.742;23.266;2023-02-15T15:13:34;36.57;;;26.03;;
10651;SDS011;5374;42.742;23.266;2023-02-15T15:16:50;42.57;;;27.83;;
10651;SDS011;5374;42.742;23.266;2023-02-15T15:26:23;44.63;;;27.27;;
10651;SDS011;5374;42.742;23.266;2023-02-15T15:29:12;39.97;;;25.33;;
10651;SDS011;5374;42.742;23.266;2023-02-15T15:31:59;37.07;;;25.47;;
10651;SDS011;5374;42.742;23.266;2023-02-15T15:34:55;34.30;;;24.07;;
10651;SDS011;5374;42.742;23.266;2023-02-15T15:38:05;33.40;;;23.90;;
10651;SDS011;5374;42.742;23.266;2023-02-15T15:41:17;29.83;;;22.60;;
10651;SDS011;5374;42.742;23.266;2023-02-15T15:47:27;33.57;;;23.00;;
10651;SDS011;5374;42.742;23.266;2023-02-15T15:50:33;32.63;;;22.73;;
10651;SDS011;5374;42.742;23.266;2023-02-15T15:53:21;35.87;;;23.97;;
10651;SDS011;5374;42.742;23.266;2023-02-15T15:56:12;36.53;;;24.93;;
10651;SDS011;5374;42.742;23.266;2023-02-15T15:59:04;36.43;;;26.70;;
10651;SDS011;5374;42.742;23.266;2023-02-15T16:01:54;32.43;;;23.77;;
10651;SDS011;5374;42.742;23.266;2023-02-15T16:04:43;29.13;;;23.13;;
10651;SDS011;5374;42.742;23.266;2023-02-15T16:07:33;37.27;;;25.77;;
10651;SDS011;5374;42.742;23.266;2023-02-15T16:10:21;40.77;;;27.53;;
10651;SDS011;5374;42.742;23.266;2023-02-15T16:13:11;34.17;;;24.40;;
10651;SDS011;5374;42.742;23.266;2023-02-15T16:16:00;37.67;;;24.30;;
10651;SDS011;5374;42.742;23.266;2023-02-15T16:18:47;39.37;;;25.23;;
10651;SDS011;5374;42.742;23.266;2023-02-15T16:21:36;34.20;;;23.13;;
10651;SDS011;5374;42.742;23.266;2023-02-15T16:27:50;41.53;;;29.67;;
10651;SDS011;5374;42.742;23.266;2023-02-15T16:30:38;41.87;;;29.27;;
10651;SDS011;5374;42.742;23.266;2023-02-15T16:33:33;44.33;;;29.20;;
10651;SDS011;5374;42.742;23.266;2023-02-15T16:36:23;38.37;;;27.57;;
10651;SDS011;5374;42.742;23.266;2023-02-15T16:39:19;37.47;;;25.93;;
10651;SDS011;5374;42.742;23.266;2023-02-15T16:42:07;32.90;;;25.03;;
10651;SDS011;5374;42.742;23.266;2023-02-15T16:44:57;31.70;;;23.87;;
10651;SDS011;5374;42.742;23.266;2023-02-15T16:47:49;30.87;;;23.83;;
10651;SDS011;5374;42.742;23.266;2023-02-15T16:50:39;34.53;;;23.90;;
10651;SDS011;5374;42.742;23.266;2023-02-15T16:53:28;32.60;;;23.90;;
10651;SDS011;5374;42.742;23.266;2023-02-15T16:56:23;32.73;;;22.90;;
10651;SDS011;5374;42.742;23.266;2023-02-15T16:59:19;39.27;;;25.13;;
10651;SDS011;5374;42.742;23.266;2023-02-15T17:02:15;33.40;;;23.97;;
10651;SDS011;5374;42.742;23.266;2023-02-15T17:05:07;33.03;;;22.60;;
10651;SDS011;5374;42.742;23.266;2023-02-15T17:08:10;31.63;;;22.20;;
10651;SDS011;5374;42.742;23.266;2023-02-15T17:11:05;31.00;;;22.93;;
10651;SDS011;5374;42.742;23.266;2023-02-15T17:14:19;30.37;;;22.60;;
10651;SDS011;5374;42.742;23.266;2023-02-15T17:17:08;33.27;;;23.27;;